createdAt,value
2023-04-25T00:01:44.140Z,101332.97
2023-04-25T00:03:47.419Z,101329.47
2023-04-25T00:05:50.129Z,101327.28
2023-04-25T00:07:52.947Z,101330.09
2023-04-25T00:09:55.114Z,101325.44
2023-04-25T00:11:57.366Z,101323.34
2023-04-25T00:14:01.034Z,101322.97
2023-04-25T00:16:03.770Z,101319.91
2023-04-25T00:18:07.031Z,101314.22
2023-04-25T00:20:11.031Z,101319.78
2023-04-25T00:22:14.537Z,101320.59
2023-04-25T00:24:16.574Z,101313.47
2023-04-25T00:26:18.705Z,101314.22
2023-04-25T00:28:21.006Z,101323.66
2023-04-25T00:30:23.470Z,101323.09
2023-04-25T00:32:25.794Z,101337.53
2023-04-25T00:34:27.932Z,101335.31
2023-04-25T00:36:30.208Z,101331.16
2023-04-25T00:38:32.270Z,101334.72
2023-04-25T00:40:35.177Z,101334.97
2023-04-25T00:42:38.378Z,101351.78
2023-04-25T00:44:41.117Z,101340.91
2023-04-25T00:46:44.018Z,101335.81
2023-04-25T00:48:46.590Z,101345.91
2023-04-25T00:50:55.180Z,101352.41
2023-04-25T00:52:57.537Z,101345.53
2023-04-25T00:55:00.596Z,101348.03
2023-04-25T00:57:02.684Z,101347.75
2023-04-25T00:59:04.973Z,101348.50
2023-04-25T01:01:08.058Z,101355.66
2023-04-25T01:03:14.023Z,101354.56
2023-04-25T01:05:16.086Z,101358.53
2023-04-25T01:07:18.341Z,101353.81
2023-04-25T01:09:21.513Z,101350.56
2023-04-25T01:11:23.442Z,101350.84
2023-04-25T01:13:25.377Z,101341.44
2023-04-25T01:15:27.369Z,101351.72
2023-04-25T01:17:30.336Z,101351.28
2023-04-25T01:19:32.617Z,101353.09
2023-04-25T01:21:34.620Z,101351.88
2023-04-25T01:23:37.188Z,101354.84
2023-04-25T01:25:39.878Z,101356.66
2023-04-25T01:27:42.124Z,101356.66
2023-04-25T01:29:44.371Z,101355.31
2023-04-25T01:31:46.861Z,101354.44
2023-04-25T01:33:49.263Z,101355.03
2023-04-25T01:35:51.502Z,101350.63
2023-04-25T01:37:53.545Z,101354.03
2023-04-25T01:39:55.821Z,101358.34
2023-04-25T01:41:58.521Z,101360.50
2023-04-25T01:44:01.216Z,101369.41
2023-04-25T01:46:03.521Z,101369.28
2023-04-25T01:48:05.978Z,101363.88
2023-04-25T01:50:09.376Z,101365.03
2023-04-25T01:52:11.384Z,101378.28
2023-04-25T01:54:14.869Z,101372.56
2023-04-25T01:56:16.910Z,101382.59
2023-04-25T01:58:18.885Z,101381.34
2023-04-25T02:00:21.145Z,101384.50
2023-04-25T02:02:23.503Z,101386.31
2023-04-25T02:04:25.589Z,101382.66
2023-04-25T02:06:27.497Z,101380.28
2023-04-25T02:08:29.282Z,101379.97
2023-04-25T02:10:31.088Z,101377.34
2023-04-25T02:12:33.274Z,101378.69
2023-04-25T02:14:35.183Z,101386.41
2023-04-25T02:18:38.705Z,101376.72
2023-04-25T02:20:40.507Z,101381.84
2023-04-25T02:22:43.079Z,101385.41
2023-04-25T02:24:44.840Z,101386.47
2023-04-25T02:26:47.887Z,101389.13
2023-04-25T02:28:49.690Z,101389.28
2023-04-25T02:30:51.485Z,101389.22
2023-04-25T02:32:53.292Z,101385.53
2023-04-25T02:34:55.198Z,101390.09
2023-04-25T02:36:57.311Z,101390.97
2023-04-25T02:38:59.074Z,101386.59
2023-04-25T02:41:01.145Z,101396.91
2023-04-25T02:43:05.221Z,101390.28
2023-04-25T02:45:07.692Z,101390.53
2023-04-25T02:47:09.522Z,101385.78
2023-04-25T02:49:11.354Z,101390.53
2023-04-25T02:51:13.644Z,101388.06
2023-04-25T02:53:15.525Z,101391.56
2023-04-25T02:55:17.260Z,101395.53
2023-04-25T02:57:19.021Z,101393.91
2023-04-25T02:59:20.715Z,101395.28
2023-04-25T03:01:22.665Z,101405.63
2023-04-25T03:03:24.773Z,101409.13
2023-04-25T03:05:26.777Z,101408.66
2023-04-25T03:07:28.519Z,101401.94
2023-04-25T03:09:30.253Z,101405.44
2023-04-25T03:11:32.032Z,101403.94
2023-04-25T03:13:33.805Z,101402.63
2023-04-25T03:15:36.714Z,101399.25
2023-04-25T03:17:38.556Z,101400.19
2023-04-25T03:19:40.369Z,101405.16
2023-04-25T03:21:42.148Z,101406.34
2023-04-25T03:23:46.724Z,101413.03
2023-04-25T03:25:48.531Z,101412.66
2023-04-25T03:27:50.640Z,101411.44
2023-04-25T03:29:52.465Z,101408.97
2023-04-25T03:31:54.269Z,101418.25
2023-04-25T03:33:56.072Z,101423.25
2023-04-25T03:35:57.852Z,101412.00
2023-04-25T03:37:59.630Z,101418.72
2023-04-25T03:40:01.556Z,101422.47
2023-04-25T03:42:04.014Z,101420.50
2023-04-25T03:44:05.890Z,101430.72
2023-04-25T03:46:09.925Z,101427.56
2023-04-25T03:48:12.747Z,101425.75
2023-04-25T03:50:14.582Z,101434.16
2023-04-25T03:52:16.725Z,101437.38
2023-04-25T03:54:21.310Z,101435.63
2023-04-25T03:56:23.160Z,101442.16
2023-04-25T03:58:25.528Z,101434.34
2023-04-25T04:00:27.725Z,101433.75
2023-04-25T04:02:29.652Z,101431.47
2023-04-25T04:04:32.108Z,101434.34
2023-04-25T04:06:34.266Z,101433.41
2023-04-25T04:08:36.260Z,101442.50
2023-04-25T04:10:40.274Z,101445.78
2023-04-25T04:12:42.107Z,101449.06
2023-04-25T04:14:44.214Z,101450.97
2023-04-25T04:16:46.314Z,101455.94
2023-04-25T04:18:48.059Z,101451.69
2023-04-25T04:20:49.771Z,101456.50
2023-04-25T04:22:51.466Z,101455.88
2023-04-25T04:24:53.284Z,101457.22
2023-04-25T04:26:55.155Z,101457.38
2023-04-25T04:28:56.982Z,101459.69
2023-04-25T04:30:58.860Z,101467.53
2023-04-25T04:33:02.080Z,101475.03
2023-04-25T04:35:05.379Z,101469.84
2023-04-25T04:37:08.247Z,101473.91
2023-04-25T04:39:10.735Z,101483.25
2023-04-25T04:41:12.492Z,101489.31
2023-04-25T04:43:14.374Z,101492.66
2023-04-25T04:45:17.395Z,101497.63
2023-04-25T04:47:21.382Z,101502.25
2023-04-25T04:49:23.228Z,101500.56
2023-04-25T04:51:24.942Z,101497.38
2023-04-25T04:53:26.790Z,101499.91
2023-04-25T04:55:28.496Z,101510.25
2023-04-25T04:57:30.799Z,101500.97
2023-04-25T04:59:32.570Z,101502.88
2023-04-25T05:01:36.985Z,101498.50
2023-04-25T05:03:38.969Z,101497.84
2023-04-25T05:05:41.918Z,101498.81
2023-04-25T05:07:43.745Z,101491.22
2023-04-25T05:09:46.018Z,101499.06
2023-04-25T05:11:50.230Z,101507.34
2023-04-25T05:13:53.861Z,101515.47
2023-04-25T05:15:56.035Z,101529.63
2023-04-25T05:17:57.874Z,101529.38
2023-04-25T05:20:00.399Z,101532.47
2023-04-25T05:22:03.061Z,101542.63
2023-04-25T05:24:08.527Z,101543.72
2023-04-25T05:26:15.113Z,101538.63
2023-04-25T05:28:19.355Z,101542.63
2023-04-25T05:30:21.843Z,101547.56
2023-04-25T05:32:23.732Z,101550.13
2023-04-25T05:34:25.551Z,101564.66
2023-04-25T05:36:27.411Z,101573.44
2023-04-25T05:38:29.166Z,101569.69
2023-04-25T05:40:30.969Z,101571.06
2023-04-25T05:42:32.688Z,101578.78
2023-04-25T05:44:34.438Z,101580.13
2023-04-25T05:46:36.384Z,101582.94
2023-04-25T05:48:41.419Z,101582.88
2023-04-25T05:50:43.222Z,101574.41
2023-04-25T05:52:45.060Z,101579.44
2023-04-25T05:54:46.891Z,101575.28
2023-04-25T05:56:48.720Z,101568.34
2023-04-25T05:58:50.520Z,101581.56
2023-04-25T06:00:52.780Z,101584.03
2023-04-25T06:02:54.796Z,101594.41
2023-04-25T06:04:56.821Z,101585.50
2023-04-25T06:06:58.802Z,101585.00
2023-04-25T06:09:00.645Z,101592.19
2023-04-25T06:11:02.631Z,101591.09
2023-04-25T06:13:05.565Z,101597.63
2023-04-25T06:15:20.036Z,101589.97
2023-04-25T06:17:29.665Z,101589.22
2023-04-25T06:19:31.524Z,101590.53
2023-04-25T06:21:33.477Z,101601.25
2023-04-25T06:23:35.641Z,101605.63
2023-04-25T06:25:37.440Z,101603.63
2023-04-25T06:27:39.289Z,101602.03
2023-04-25T06:29:41.196Z,101600.63
2023-04-25T06:31:43.250Z,101601.88
2023-04-25T06:33:45.204Z,101593.09
2023-04-25T06:35:47.107Z,101600.13
2023-04-25T06:37:49.024Z,101603.63
2023-04-25T06:39:53.570Z,101604.81
2023-04-25T06:41:55.715Z,101607.00
2023-04-25T06:43:57.701Z,101606.03
2023-04-25T06:45:59.800Z,101605.66
2023-04-25T06:48:01.843Z,101607.50
2023-04-25T06:50:10.028Z,101608.84
2023-04-25T06:52:12.081Z,101610.59
2023-04-25T06:54:14.098Z,101616.09
2023-04-25T06:56:17.665Z,101620.88
2023-04-25T06:58:20.055Z,101616.44
2023-04-25T07:00:22.301Z,101614.03
2023-04-25T07:02:24.401Z,101616.44
2023-04-25T07:04:27.134Z,101611.25
2023-04-25T07:06:29.564Z,101607.78
2023-04-25T07:08:31.711Z,101616.97
2023-04-25T07:10:33.672Z,101617.84
2023-04-25T07:12:35.570Z,101619.94
2023-04-25T07:14:37.407Z,101617.75
2023-04-25T07:16:39.348Z,101624.88
2023-04-25T07:18:41.385Z,101626.16
2023-04-25T07:20:46.241Z,101628.03
2023-04-25T07:22:48.232Z,101630.78
2023-04-25T07:24:51.447Z,101630.59
2023-04-25T07:26:53.342Z,101636.09
2023-04-25T07:28:55.848Z,101639.75
2023-04-25T07:30:59.217Z,101644.47
2023-04-25T07:33:03.362Z,101646.88
2023-04-25T07:35:06.010Z,101647.03
2023-04-25T07:37:08.088Z,101652.66
2023-04-25T07:39:10.514Z,101644.78
2023-04-25T07:41:12.407Z,101655.16
2023-04-25T07:43:17.752Z,101646.69
2023-04-25T07:45:19.753Z,101647.97
2023-04-25T07:47:21.852Z,101645.66
2023-04-25T07:49:23.869Z,101652.28
2023-04-25T07:51:25.832Z,101656.47
2023-04-25T07:53:27.986Z,101658.59
2023-04-25T07:55:30.047Z,101653.41
2023-04-25T07:57:33.596Z,101666.50
2023-04-25T07:59:36.132Z,101659.06
2023-04-25T08:01:43.448Z,101671.84
2023-04-25T08:03:45.923Z,101676.75
2023-04-25T08:05:48.291Z,101679.00
2023-04-25T08:07:51.136Z,101687.44
2023-04-25T08:10:07.429Z,101687.75
2023-04-25T08:14:32.618Z,101684.97
2023-04-25T08:17:13.418Z,101682.47
2023-04-25T08:19:15.373Z,101685.41
2023-04-25T08:21:17.291Z,101680.34
2023-04-25T08:23:19.426Z,101684.72
2023-04-25T08:25:21.510Z,101690.66
2023-04-25T08:27:25.197Z,101686.78
2023-04-25T08:29:32.183Z,101683.47
2023-04-25T08:31:34.742Z,101696.81
2023-04-25T08:33:38.123Z,101700.03
2023-04-25T08:35:40.282Z,101699.78
2023-04-25T08:37:43.216Z,101694.53
2023-04-25T08:39:46.307Z,101691.66
2023-04-25T08:41:48.971Z,101690.41
2023-04-25T08:43:52.620Z,101686.72
2023-04-25T08:45:55.895Z,101692.56
2023-04-25T08:47:59.064Z,101688.25
2023-04-25T08:50:19.514Z,101699.53
2023-04-25T08:52:25.697Z,101692.19
2023-04-25T08:54:35.349Z,101683.50
2023-04-25T08:56:40.209Z,101682.13
2023-04-25T08:58:42.314Z,101689.75
2023-04-25T09:00:44.387Z,101682.25
2023-04-25T09:02:48.253Z,101680.03
2023-04-25T09:04:51.186Z,101678.53
2023-04-25T09:06:53.364Z,101688.78
2023-04-25T09:08:55.423Z,101692.31
2023-04-25T09:10:57.486Z,101688.00
2023-04-25T09:13:18.598Z,101690.31
2023-04-25T09:15:21.027Z,101679.31
2023-04-25T09:17:23.251Z,101675.94
2023-04-25T09:19:39.592Z,101684.22
2023-04-25T09:22:20.647Z,101683.63
2023-04-25T09:24:38.141Z,101680.56
2023-04-25T09:26:40.220Z,101688.91
2023-04-25T09:28:44.169Z,101674.72
2023-04-25T09:30:47.503Z,101689.31
2023-04-25T09:32:49.747Z,101681.16
2023-04-25T09:34:54.664Z,101686.56
2023-04-25T09:36:57.181Z,101682.44
2023-04-25T09:39:02.080Z,101674.13
2023-04-25T09:43:35.517Z,101690.91
2023-04-25T09:45:47.033Z,101677.41
2023-04-25T09:47:49.706Z,101676.16
2023-04-25T09:50:33.368Z,101673.81
2023-04-25T09:52:35.766Z,101665.50
2023-04-25T09:54:38.171Z,101671.25
2023-04-25T09:56:40.899Z,101674.97
2023-04-25T09:58:43.435Z,101672.91
2023-04-25T10:00:46.238Z,101673.53
2023-04-25T10:02:50.093Z,101671.22
2023-04-25T10:04:56.530Z,101668.66
2023-04-25T10:07:00.819Z,101659.56
2023-04-25T10:09:06.806Z,101665.81
2023-04-25T10:11:10.267Z,101664.91
2023-04-25T10:13:12.900Z,101672.66
2023-04-25T10:15:18.890Z,101671.28
2023-04-25T10:17:21.741Z,101667.63
2023-04-25T10:19:25.235Z,101668.66
2023-04-25T10:21:32.802Z,101666.41
2023-04-25T10:23:35.908Z,101662.63
2023-04-25T10:25:38.409Z,101671.78
2023-04-25T10:27:41.457Z,101674.75
2023-04-25T10:29:45.286Z,101681.00
2023-04-25T10:31:48.983Z,101678.59
2023-04-25T10:33:51.464Z,101679.53
2023-04-25T10:35:59.433Z,101676.31
2023-04-25T10:38:06.592Z,101680.25
2023-04-25T10:40:13.977Z,101676.44
2023-04-25T10:42:16.322Z,101673.97
2023-04-25T10:44:18.356Z,101677.72
2023-04-25T10:46:24.136Z,101673.06
2023-04-25T10:48:28.187Z,101681.63
2023-04-25T10:50:41.209Z,101677.06
2023-04-25T10:52:43.884Z,101673.06
2023-04-25T10:54:52.561Z,101665.31
2023-04-25T10:56:55.008Z,101676.84
2023-04-25T10:59:07.786Z,101680.41
2023-04-25T11:01:10.619Z,101679.09
2023-04-25T11:03:19.494Z,101680.06
2023-04-25T11:05:25.502Z,101670.63
2023-04-25T11:07:39.051Z,101668.00
2023-04-25T11:09:44.087Z,101667.53
2023-04-25T11:11:56.665Z,101673.88
2023-04-25T11:13:59.694Z,101673.69
2023-04-25T11:16:12.120Z,101671.59
2023-04-25T11:18:18.848Z,101670.78
2023-04-25T11:20:23.174Z,101669.44
2023-04-25T11:22:25.538Z,101675.28
2023-04-25T11:24:33.767Z,101664.97
2023-04-25T11:26:39.866Z,101664.94
2023-04-25T11:28:42.354Z,101652.81
2023-04-25T11:30:51.406Z,101656.81
2023-04-25T11:32:53.957Z,101657.78
2023-04-25T11:34:56.410Z,101653.09
2023-04-25T11:36:59.628Z,101652.50
2023-04-25T11:39:02.657Z,101653.88
2023-04-25T11:41:04.854Z,101659.00
2023-04-25T11:43:07.088Z,101658.06
2023-04-25T11:45:10.925Z,101658.44
2023-04-25T11:47:13.211Z,101651.72
2023-04-25T11:49:17.441Z,101660.00
2023-04-25T11:51:19.487Z,101653.31
2023-04-25T11:53:22.163Z,101664.56
2023-04-25T11:55:24.649Z,101655.06
2023-04-25T11:57:27.680Z,101657.72
2023-04-25T11:59:30.340Z,101659.94
2023-04-25T12:01:35.284Z,101659.13
2023-04-25T12:03:47.761Z,101657.06
2023-04-25T12:05:51.550Z,101664.16
2023-04-25T12:07:53.912Z,101667.97
2023-04-25T12:10:10.050Z,101663.22
2023-04-25T12:12:12.482Z,101666.38
2023-04-25T12:14:28.335Z,101656.19
2023-04-25T12:16:31.533Z,101656.31
2023-04-25T12:18:37.525Z,101661.59
2023-04-25T12:20:40.671Z,101663.66
2023-04-25T12:22:48.031Z,101666.44
2023-04-25T12:24:50.522Z,101666.53
2023-04-25T12:27:00.327Z,101666.66
2023-04-25T12:29:02.810Z,101664.75
2023-04-25T12:31:07.095Z,101669.09
2023-04-25T12:33:09.485Z,101670.41
2023-04-25T12:35:12.055Z,101672.81
2023-04-25T12:37:14.501Z,101674.28
2023-04-25T12:39:19.291Z,101668.47
2023-04-25T12:41:21.735Z,101663.00
2023-04-25T12:43:27.091Z,101671.88
2023-04-25T12:45:29.693Z,101674.03
2023-04-25T12:47:31.845Z,101671.66
2023-04-25T12:49:34.180Z,101672.59
2023-04-25T12:51:37.414Z,101666.38
2023-04-25T12:53:41.541Z,101676.63
2023-04-25T12:55:43.761Z,101671.00
2023-04-25T12:57:46.073Z,101666.63
2023-04-25T12:59:48.087Z,101670.22
2023-04-25T13:01:50.810Z,101673.31
2023-04-25T13:03:53.431Z,101668.84
2023-04-25T13:05:55.927Z,101674.13
2023-04-25T13:07:58.459Z,101673.47
2023-04-25T13:10:18.486Z,101672.34
2023-04-25T13:12:20.919Z,101677.19
2023-04-25T13:14:22.989Z,101683.38
2023-04-25T13:16:25.053Z,101687.09
2023-04-25T13:18:27.947Z,101679.19
2023-04-25T13:20:33.861Z,101686.69
2023-04-25T13:22:38.539Z,101690.59
2023-04-25T13:24:40.932Z,101689.19
2023-04-25T13:26:43.452Z,101682.50
2023-04-25T13:28:45.593Z,101680.50
2023-04-25T13:30:49.528Z,101685.44
2023-04-25T13:32:51.971Z,101677.69
2023-04-25T13:34:54.602Z,101690.44
2023-04-25T13:36:57.212Z,101682.03
2023-04-25T13:38:59.508Z,101689.28
2023-04-25T13:41:02.548Z,101685.19
2023-04-25T13:43:04.495Z,101692.13
2023-04-25T13:45:07.521Z,101693.41
2023-04-25T13:47:09.595Z,101684.91
2023-04-25T13:49:13.582Z,101682.41
2023-04-25T13:51:17.712Z,101685.38
2023-04-25T13:53:19.788Z,101690.84
2023-04-25T13:55:22.162Z,101690.75
2023-04-25T13:57:24.554Z,101692.31
2023-04-25T13:59:28.353Z,101691.00
2023-04-25T14:01:32.716Z,101692.66
2023-04-25T14:03:35.233Z,101691.34
2023-04-25T14:05:41.491Z,101697.66
2023-04-25T14:07:44.073Z,101691.72
2023-04-25T14:09:47.684Z,101693.53
2023-04-25T14:11:49.922Z,101684.16
2023-04-25T14:13:52.626Z,101684.91
2023-04-25T14:15:55.315Z,101692.59
2023-04-25T14:17:57.333Z,101684.66
2023-04-25T14:20:37.182Z,101687.22
2023-04-25T14:22:42.796Z,101687.22
2023-04-25T14:24:45.116Z,101684.38
2023-04-25T14:26:47.687Z,101687.03
2023-04-25T14:28:50.331Z,101693.47
2023-04-25T14:31:09.830Z,101689.19
2023-04-25T14:33:17.683Z,101686.69
2023-04-25T14:35:30.685Z,101693.34
2023-04-25T14:37:33.791Z,101689.19
2023-04-25T14:39:37.293Z,101694.38
2023-04-25T14:41:39.622Z,101687.81
2023-04-25T14:43:43.137Z,101691.94
2023-04-25T14:45:45.283Z,101681.50
2023-04-25T14:47:48.407Z,101675.41
2023-04-25T14:49:55.527Z,101679.44
2023-04-25T14:52:01.370Z,101666.06
2023-04-25T14:54:09.981Z,101668.63
2023-04-25T14:56:12.540Z,101673.88
2023-04-25T14:58:15.039Z,101683.16
2023-04-25T15:00:18.954Z,101675.19
2023-04-25T15:02:37.959Z,101673.66
2023-04-25T15:04:49.298Z,101672.16
2023-04-25T15:07:07.773Z,101675.53
2023-04-25T15:09:12.407Z,101671.22
2023-04-25T15:11:14.956Z,101668.47
2023-04-25T15:13:19.691Z,101679.09
2023-04-25T15:15:26.965Z,101674.06
2023-04-25T15:17:32.406Z,101678.06
2023-04-25T15:19:35.353Z,101672.25
2023-04-25T15:21:37.928Z,101673.72
2023-04-25T15:23:40.226Z,101670.59
2023-04-25T15:25:43.095Z,101672.34
2023-04-25T15:27:47.839Z,101672.06
2023-04-25T15:29:51.522Z,101671.66
2023-04-25T15:32:03.381Z,101669.69
2023-04-25T15:34:10.596Z,101658.91
2023-04-25T15:36:29.501Z,101672.13
2023-04-25T15:38:35.274Z,101666.00
2023-04-25T15:40:43.954Z,101665.53
2023-04-25T15:42:48.205Z,101669.28
2023-04-25T15:44:50.522Z,101668.81
2023-04-25T15:47:03.147Z,101661.75
2023-04-25T15:49:05.746Z,101660.34
2023-04-25T15:51:13.865Z,101662.41
2023-04-25T15:53:16.620Z,101659.13
2023-04-25T15:55:22.059Z,101653.41
2023-04-25T15:57:24.113Z,101653.97
2023-04-25T15:59:26.090Z,101667.41
2023-04-25T16:01:31.223Z,101658.00
2023-04-25T16:03:36.378Z,101651.22
2023-04-25T16:05:38.832Z,101656.13
2023-04-25T16:07:43.276Z,101657.44
2023-04-25T16:09:46.975Z,101655.22
2023-04-25T16:11:49.683Z,101652.78
2023-04-25T16:13:52.051Z,101657.94
2023-04-25T16:15:54.414Z,101658.06
2023-04-25T16:17:59.259Z,101658.97
2023-04-25T16:20:10.821Z,101663.75
2023-04-25T16:22:22.012Z,101656.72
2023-04-25T16:24:24.011Z,101665.09
2023-04-25T16:26:26.478Z,101657.41
2023-04-25T16:28:28.618Z,101660.16
2023-04-25T16:30:41.045Z,101660.94
2023-04-25T16:32:46.608Z,101646.66
2023-04-25T16:34:49.182Z,101656.81
2023-04-25T16:37:20.887Z,101652.59
2023-04-25T16:39:23.496Z,101647.34
2023-04-25T16:41:25.778Z,101648.31
2023-04-25T16:43:27.888Z,101651.41
2023-04-25T16:45:39.593Z,101647.88
2023-04-25T16:47:46.561Z,101649.06
2023-04-25T16:49:49.366Z,101646.84
2023-04-25T16:51:52.217Z,101647.94
2023-04-25T16:54:14.957Z,101642.00
2023-04-25T16:56:17.413Z,101643.41
2023-04-25T16:58:20.717Z,101649.31
2023-04-25T17:00:32.627Z,101643.72
2023-04-25T17:03:13.455Z,101634.72
2023-04-25T17:05:42.125Z,101640.13
2023-04-25T17:07:51.170Z,101631.22
2023-04-25T17:10:00.270Z,101638.84
2023-04-25T17:12:38.083Z,101633.28
2023-04-25T17:17:51.137Z,101632.38
2023-04-25T17:20:43.860Z,101632.06
2023-04-25T17:22:58.738Z,101632.03
2023-04-25T17:27:40.703Z,101637.41
2023-04-25T17:30:03.586Z,101637.59
2023-04-25T17:32:27.211Z,101641.91
2023-04-25T17:34:36.406Z,101642.13
2023-04-25T17:36:39.842Z,101643.03
2023-04-25T17:38:42.824Z,101645.22
2023-04-25T17:40:45.132Z,101647.94
2023-04-25T17:42:47.394Z,101640.31
2023-04-25T17:44:49.957Z,101643.88
2023-04-25T17:46:52.333Z,101648.66
2023-04-25T17:48:54.878Z,101644.50
2023-04-25T17:50:58.828Z,101633.13
2023-04-25T17:53:04.043Z,101641.06
2023-04-25T17:55:07.535Z,101644.47
2023-04-25T17:57:09.932Z,101642.16
2023-04-25T17:59:12.258Z,101639.16
2023-04-25T18:01:15.135Z,101642.56
2023-04-25T18:03:18.253Z,101646.47
2023-04-25T18:05:21.084Z,101644.88
2023-04-25T18:07:23.901Z,101655.13
2023-04-25T18:09:26.542Z,101650.56
2023-04-25T18:11:30.259Z,101659.44
2023-04-25T18:13:35.054Z,101652.06
2023-04-25T18:15:37.133Z,101645.72
2023-04-25T18:17:40.841Z,101639.03
2023-04-25T18:19:43.040Z,101642.00
2023-04-25T18:21:46.237Z,101635.06
2023-04-25T18:23:48.561Z,101635.63
2023-04-25T18:25:52.573Z,101630.53
2023-04-25T18:27:54.968Z,101631.84
2023-04-25T18:29:58.655Z,101637.63
2023-04-25T18:32:01.192Z,101627.22
2023-04-25T18:34:03.588Z,101635.13
2023-04-25T18:36:08.475Z,101634.91
2023-04-25T18:38:10.683Z,101637.56
2023-04-25T18:40:16.034Z,101643.69
2023-04-25T18:42:20.231Z,101645.03
2023-04-25T18:44:22.641Z,101642.19
2023-04-25T18:46:24.987Z,101641.66
2023-04-25T18:48:28.039Z,101633.13
2023-04-25T18:50:32.570Z,101642.16
2023-04-25T18:52:34.737Z,101634.44
2023-04-25T18:54:37.714Z,101628.72
2023-04-25T18:56:39.867Z,101632.41
2023-04-25T18:58:43.830Z,101630.66
2023-04-25T19:00:49.474Z,101624.91
2023-04-25T19:02:56.258Z,101626.97
2023-04-25T19:04:59.171Z,101632.28
2023-04-25T19:07:01.370Z,101630.16
2023-04-25T19:09:03.268Z,101624.16
2023-04-25T19:11:18.110Z,101628.78
2023-04-25T19:13:22.754Z,101633.47
2023-04-25T19:15:24.522Z,101634.22
2023-04-25T19:17:28.409Z,101639.09
2023-04-25T19:19:32.712Z,101633.59
2023-04-25T19:21:35.287Z,101640.09
2023-04-25T19:23:37.608Z,101643.53
2023-04-25T19:25:39.756Z,101640.97
2023-04-25T19:27:42.727Z,101641.88
2023-04-25T19:29:48.470Z,101642.59
2023-04-25T19:31:50.633Z,101641.28
2023-04-25T19:33:52.889Z,101642.09
2023-04-25T19:35:55.586Z,101656.19
2023-04-25T19:37:57.748Z,101657.63
2023-04-25T19:40:02.980Z,101656.25
2023-04-25T19:42:06.867Z,101663.88
2023-04-25T19:44:09.883Z,101654.63
2023-04-25T19:46:12.151Z,101668.31
2023-04-25T19:48:14.361Z,101666.66
2023-04-25T19:50:16.437Z,101675.09
2023-04-25T19:52:18.606Z,101670.41
2023-04-25T19:54:22.804Z,101679.44
2023-04-25T19:56:26.579Z,101686.84
2023-04-25T19:58:30.042Z,101688.97
2023-04-25T20:00:32.333Z,101684.75
2023-04-25T20:02:35.933Z,101693.66
2023-04-25T20:04:38.906Z,101693.97
2023-04-25T20:06:40.776Z,101696.91
2023-04-25T20:08:43.667Z,101698.72
2023-04-25T20:10:45.821Z,101701.84
2023-04-25T20:12:47.718Z,101709.25
2023-04-25T20:14:49.688Z,101705.69
2023-04-25T20:16:51.743Z,101702.94
2023-04-25T20:18:54.570Z,101700.59
2023-04-25T20:20:57.059Z,101705.22
2023-04-25T20:22:59.058Z,101704.28
2023-04-25T20:25:01.331Z,101699.56
2023-04-25T20:27:03.418Z,101703.09
2023-04-25T20:29:06.760Z,101698.19
2023-04-25T20:31:10.961Z,101699.44
2023-04-25T20:33:13.262Z,101698.69
2023-04-25T20:35:15.210Z,101716.75
2023-04-25T20:37:17.293Z,101712.44
2023-04-25T20:39:20.162Z,101712.91
2023-04-25T20:41:22.668Z,101708.50
2023-04-25T20:43:25.956Z,101713.78
2023-04-25T20:45:32.123Z,101724.94
2023-04-25T20:47:35.085Z,101717.38
2023-04-25T20:49:37.113Z,101727.03
2023-04-25T20:51:39.149Z,101726.91
2023-04-25T20:53:41.104Z,101734.28
2023-04-25T20:55:43.312Z,101742.00
2023-04-25T20:57:45.141Z,101735.44
2023-04-25T20:59:48.264Z,101735.69
2023-04-25T21:01:51.032Z,101746.44
2023-04-25T21:03:53.224Z,101749.63
2023-04-25T21:05:55.697Z,101757.88
2023-04-25T21:07:58.119Z,101751.50
2023-04-25T21:09:59.974Z,101751.72
2023-04-25T21:12:04.601Z,101751.66
2023-04-25T21:14:07.878Z,101751.56
2023-04-25T21:16:09.716Z,101753.41
2023-04-25T21:18:11.837Z,101753.63
2023-04-25T21:20:17.863Z,101748.91
2023-04-25T21:22:20.003Z,101751.00
2023-04-25T21:24:22.164Z,101746.59
2023-04-25T21:26:24.338Z,101751.97
2023-04-25T21:28:26.411Z,101751.94
2023-04-25T21:30:28.859Z,101749.91
2023-04-25T21:32:31.004Z,101744.34
2023-04-25T21:34:32.960Z,101740.00
2023-04-25T21:36:34.853Z,101737.09
2023-04-25T21:38:36.924Z,101746.84
2023-04-25T21:40:40.227Z,101739.56
2023-04-25T21:42:44.847Z,101748.94
2023-04-25T21:44:46.702Z,101744.28
2023-04-25T21:46:48.738Z,101745.66
2023-04-25T21:48:51.855Z,101745.59
2023-04-25T21:50:55.912Z,101749.28
2023-04-25T21:52:59.148Z,101741.72
2023-04-25T21:55:03.386Z,101744.06
2023-04-25T21:57:05.219Z,101749.41
2023-04-25T21:59:07.101Z,101738.38
2023-04-25T22:01:10.020Z,101743.84
2023-04-25T22:03:14.498Z,101746.88
2023-04-25T22:05:17.462Z,101747.84
2023-04-25T22:07:19.370Z,101749.66
2023-04-25T22:09:21.353Z,101747.53
2023-04-25T22:11:26.521Z,101744.50
2023-04-25T22:13:29.214Z,101750.56
2023-04-25T22:15:31.234Z,101750.09
2023-04-25T22:17:33.555Z,101751.56
2023-04-25T22:19:37.409Z,101756.94
2023-04-25T22:21:39.335Z,101756.31
2023-04-25T22:23:41.240Z,101763.03
2023-04-25T22:25:43.164Z,101769.84
2023-04-25T22:27:48.387Z,101775.31
2023-04-25T22:29:53.463Z,101771.13
2023-04-25T22:31:55.423Z,101769.47
2023-04-25T22:33:57.461Z,101765.06
2023-04-25T22:35:59.507Z,101778.09
2023-04-25T22:38:01.781Z,101775.47
2023-04-25T22:40:09.227Z,101774.72
2023-04-25T22:42:11.120Z,101767.81
2023-04-25T22:44:12.976Z,101771.34
2023-04-25T22:46:19.121Z,101766.91
2023-04-25T22:48:21.491Z,101775.63
2023-04-25T22:50:23.324Z,101767.66
2023-04-25T22:52:25.139Z,101768.53
2023-04-25T22:54:27.614Z,101769.41
2023-04-25T22:56:30.536Z,101761.59
2023-04-25T22:58:32.861Z,101759.84
2023-04-25T23:00:35.524Z,101758.31
2023-04-25T23:02:37.508Z,101759.19
2023-04-25T23:04:39.476Z,101763.81
2023-04-25T23:06:41.233Z,101764.81
2023-04-25T23:08:43.855Z,101766.38
2023-04-25T23:10:45.669Z,101770.84
2023-04-25T23:12:47.699Z,101770.94
2023-04-25T23:14:52.050Z,101775.13
2023-04-25T23:16:55.464Z,101767.16
2023-04-25T23:18:57.408Z,101761.81
2023-04-25T23:20:59.536Z,101766.56
2023-04-25T23:23:03.992Z,101771.97
2023-04-25T23:25:08.941Z,101771.50
2023-04-25T23:27:10.865Z,101765.13
2023-04-25T23:29:12.609Z,101766.59
2023-04-25T23:31:14.492Z,101761.88
2023-04-25T23:33:16.384Z,101767.59
2023-04-25T23:35:18.318Z,101768.75
2023-04-25T23:37:20.133Z,101764.84
2023-04-25T23:39:21.912Z,101781.16
2023-04-25T23:41:23.723Z,101772.91
2023-04-25T23:43:25.593Z,101773.41
2023-04-25T23:45:27.446Z,101772.75
2023-04-25T23:47:29.251Z,101775.09
2023-04-25T23:49:33.069Z,101773.78